LFJL/ETZ METAR and TAF weather

Enter ICAO airport designator
Station Type Date Time Source
LFJL METAR 2021/09/24 02:00 UTC NOAA

LFJL 240200Z AUTO 21008KT CAVOK 11/09 Q1019 TEMPO 4000 BR


Station Type Date Time Source
LFJL Decoded METAR 2021/09/24 02:00 UTC NOAA

Metz-Nancy-Lorraine, France (LFJL) 48-59N 006-15E
Sep 23, 2021 - 10:00 PM EDT / 2021.09.24 0200 UTC
Wind: from the SSW (210 degrees) at 9 MPH (8 KT):0
Visibility: greater than 7 mile(s):0
Temperature: 51 F (11 C)
Dew Point: 48 F (9 C)
Relative Humidity: 87%
Pressure (altimeter): 30.09 in. Hg (1019 hPa)
ob: LFJL 240200Z AUTO 21008KT CAVOK 11/09 Q1019 TEMPO 4000 BR
cycle: 2

Station Type Date Time Source
LFJL TAF 2021/09/23 18:27 UTC NOAA

TAF LFJL 231700Z 2318/2418 26005KT CAVOK PROB40
TEMPO 2402/2407 4000 BR

Example: see airport list